createdAt,value
2017-05-25T00:00:28.971Z,10.46
2017-05-25T00:01:29.016Z,10.51
2017-05-25T00:02:29.055Z,10.36
2017-05-25T00:03:29.064Z,10.31
2017-05-25T00:04:29.120Z,10.29
2017-05-25T00:05:29.146Z,10.26
2017-05-25T00:06:29.183Z,10.32
2017-05-25T00:07:29.196Z,10.21
2017-05-25T00:08:29.246Z,10.28
2017-05-25T00:09:29.263Z,10.25
2017-05-25T00:10:29.305Z,10.2
2017-05-25T00:11:29.330Z,10.23
2017-05-25T00:12:29.368Z,10.25
2017-05-25T00:13:29.420Z,10.26
2017-05-25T00:14:29.430Z,10.26
2017-05-25T00:15:29.454Z,10.2
2017-05-25T00:16:29.501Z,10.25
2017-05-25T00:17:29.524Z,10.25
2017-05-25T00:18:29.548Z,10.25
2017-05-25T00:19:29.601Z,10.18
2017-05-25T00:20:29.622Z,10.28
2017-05-25T00:21:29.661Z,10.26
2017-05-25T00:22:29.673Z,10.2
2017-05-25T00:23:29.719Z,10.26
2017-05-25T00:24:29.775Z,10.2
2017-05-25T00:25:29.784Z,10.08
2017-05-25T00:26:29.798Z,10.11
2017-05-25T00:27:29.854Z,10.1
2017-05-25T00:28:29.881Z,10.11
2017-05-25T00:29:29.919Z,10.07
2017-05-25T00:30:29.954Z,10.07
2017-05-25T00:31:29.964Z,10.1
2017-05-25T00:32:30.010Z,10
2017-05-25T00:33:30.053Z,10.13
2017-05-25T00:34:30.073Z,10.08
2017-05-25T00:35:30.105Z,10.08
2017-05-25T00:36:30.139Z,9.99
2017-05-25T00:37:30.167Z,10.08
2017-05-25T00:38:30.229Z,10.1
2017-05-25T00:39:30.234Z,10.14
2017-05-25T00:40:30.260Z,10.07
2017-05-25T00:41:30.301Z,9.98
2017-05-25T00:42:30.338Z,9.93
2017-05-25T00:43:30.331Z,10.05
2017-05-25T00:44:30.402Z,10
2017-05-25T00:45:30.431Z,9.98
2017-05-25T00:46:30.442Z,9.96
2017-05-25T00:47:30.464Z,9.95
2017-05-25T00:48:30.532Z,9.93
2017-05-25T00:49:30.566Z,9.9
2017-05-25T00:50:30.562Z,9.96
2017-05-25T00:51:30.622Z,9.96
2017-05-25T00:52:30.853Z,10
2017-05-25T00:53:30.674Z,9.96
2017-05-25T00:54:30.709Z,9.89
2017-05-25T00:55:30.743Z,9.85
2017-05-25T00:56:30.745Z,9.93
2017-05-25T00:57:30.805Z,9.92
2017-05-25T00:58:30.862Z,9.95
2017-05-25T00:59:30.897Z,9.92
2017-05-25T01:00:32.330Z,9.98
2017-05-25T01:01:30.947Z,9.95
2017-05-25T01:02:30.943Z,10.07
2017-05-25T01:03:30.993Z,10.02
2017-05-25T01:04:31.014Z,10.21
2017-05-25T01:05:31.058Z,10.14
2017-05-25T01:06:31.116Z,10.15
2017-05-25T01:07:31.137Z,10.14
2017-05-25T01:08:31.154Z,10.1
2017-05-25T01:09:31.191Z,10.02
2017-05-25T01:10:31.426Z,10.07
2017-05-25T01:11:31.258Z,10.05
2017-05-25T01:12:31.327Z,9.95
2017-05-25T01:13:31.291Z,9.89
2017-05-25T01:14:31.363Z,9.93
2017-05-25T01:15:31.486Z,9.92
2017-05-25T01:16:31.422Z,9.98
2017-05-25T01:17:31.441Z,9.88
2017-05-25T01:18:31.479Z,9.82
2017-05-25T01:19:31.511Z,9.88
2017-05-25T01:20:31.551Z,9.89
2017-05-25T01:21:31.580Z,9.85
2017-05-25T01:22:31.603Z,9.92
2017-05-25T01:23:31.632Z,9.82
2017-05-25T01:24:31.682Z,9.84
2017-05-25T01:25:31.685Z,9.84
2017-05-25T01:26:31.747Z,9.8
2017-05-25T01:27:31.752Z,9.8
2017-05-25T01:28:31.772Z,9.78
2017-05-25T01:29:31.827Z,9.82
2017-05-25T01:30:31.852Z,9.82
2017-05-25T01:31:31.896Z,9.78
2017-05-25T01:32:31.901Z,9.81
2017-05-25T01:33:31.979Z,9.88
2017-05-25T01:34:31.979Z,9.72
2017-05-25T01:35:32.021Z,9.84
2017-05-25T01:36:32.062Z,9.77
2017-05-25T01:37:32.074Z,9.8
2017-05-25T01:38:32.117Z,9.75
2017-05-25T01:39:32.149Z,9.77
2017-05-25T01:40:32.167Z,9.8
2017-05-25T01:41:32.217Z,9.75
2017-05-25T01:42:32.249Z,9.75
2017-05-25T01:43:32.286Z,9.7
2017-05-25T01:44:32.316Z,9.63
2017-05-25T01:45:32.344Z,9.63
2017-05-25T01:46:32.381Z,9.67
2017-05-25T01:47:32.422Z,9.63
2017-05-25T01:48:32.442Z,9.77
2017-05-25T01:49:32.467Z,9.62
2017-05-25T01:50:32.502Z,9.6
2017-05-25T01:51:32.537Z,9.66
2017-05-25T01:52:32.568Z,9.64
2017-05-25T01:53:32.593Z,9.67
2017-05-25T01:54:32.638Z,9.57
2017-05-25T01:55:32.645Z,9.6
2017-05-25T01:56:32.702Z,9.64
2017-05-25T01:57:32.715Z,9.53
2017-05-25T01:58:32.764Z,9.5
2017-05-25T01:59:32.799Z,9.6
2017-05-25T02:00:33.001Z,9.6
2017-05-25T02:01:32.874Z,9.6
2017-05-25T02:02:32.848Z,9.52
2017-05-25T02:03:32.914Z,9.56
2017-05-25T02:04:32.942Z,9.52
2017-05-25T02:05:32.958Z,9.5
2017-05-25T02:06:32.996Z,9.45
2017-05-25T02:07:33.049Z,9.48
2017-05-25T02:08:33.083Z,9.47
2017-05-25T02:09:33.111Z,9.48
2017-05-25T02:10:33.143Z,9.45
2017-05-25T02:11:33.292Z,9.47
2017-05-25T02:12:33.170Z,9.38
2017-05-25T02:13:33.213Z,9.42
2017-05-25T02:14:33.246Z,9.45
2017-05-25T02:15:33.290Z,9.41
2017-05-25T02:16:33.317Z,9.39
2017-05-25T02:17:33.362Z,9.37
2017-05-25T02:18:33.411Z,9.34
2017-05-25T02:19:33.437Z,9.37
2017-05-25T02:20:33.441Z,9.41
2017-05-25T02:21:33.499Z,9.3
2017-05-25T02:22:33.515Z,9.41
2017-05-25T02:23:33.545Z,9.34
2017-05-25T02:24:33.590Z,9.35
2017-05-25T02:25:33.600Z,9.37
2017-05-25T02:26:33.613Z,9.27
2017-05-25T02:27:33.681Z,9.3
2017-05-25T02:28:33.697Z,9.29
2017-05-25T02:29:33.729Z,9.23
2017-05-25T02:30:33.778Z,9.24
2017-05-25T02:31:33.803Z,9.26
2017-05-25T02:32:33.814Z,9.23
2017-05-25T02:33:33.867Z,9.26
2017-05-25T02:34:33.884Z,9.3
2017-05-25T02:35:33.935Z,9.29
2017-05-25T02:36:33.966Z,9.34
2017-05-25T02:37:34.000Z,9.32
2017-05-25T02:38:34.010Z,9.34
2017-05-25T02:39:34.052Z,9.23
2017-05-25T02:40:34.300Z,9.23
2017-05-25T02:41:34.099Z,9.32
2017-05-25T02:42:34.123Z,9.17
2017-05-25T02:43:34.192Z,9.2
2017-05-25T02:44:34.202Z,9.26
2017-05-25T02:45:34.259Z,9.24
2017-05-25T02:46:34.279Z,9.21
2017-05-25T02:47:34.298Z,9.2
2017-05-25T02:48:34.341Z,9.21
2017-05-25T02:49:34.368Z,9.23
2017-05-25T02:50:34.381Z,9.24
2017-05-25T02:51:34.444Z,9.26
2017-05-25T02:52:34.459Z,9.34
2017-05-25T02:53:34.560Z,9.32
2017-05-25T02:54:34.535Z,9.27
2017-05-25T02:55:34.549Z,9.29
2017-05-25T02:56:34.570Z,9.3
2017-05-25T02:57:34.616Z,9.26
2017-05-25T02:58:34.661Z,9.21
2017-05-25T02:59:34.695Z,9.29
2017-05-25T03:00:35.661Z,9.34
2017-05-25T03:01:34.750Z,9.21
2017-05-25T03:02:34.764Z,9.32
2017-05-25T03:03:34.796Z,9.34
2017-05-25T03:04:34.829Z,9.35
2017-05-25T03:05:34.882Z,9.29
2017-05-25T03:06:34.886Z,9.27
2017-05-25T03:07:34.932Z,9.41
2017-05-25T03:08:34.978Z,9.34
2017-05-25T03:09:34.975Z,9.37
2017-05-25T03:10:35.006Z,9.38
2017-05-25T03:11:35.074Z,9.42
2017-05-25T03:12:35.079Z,9.35
2017-05-25T03:13:35.108Z,9.38
2017-05-25T03:14:35.159Z,9.45
2017-05-25T03:15:35.172Z,9.34
2017-05-25T03:16:35.233Z,9.39
2017-05-25T03:17:35.263Z,9.38
2017-05-25T03:18:35.271Z,9.37
2017-05-25T03:19:35.305Z,9.39
2017-05-25T03:20:35.352Z,9.37
2017-05-25T03:21:35.395Z,9.39
2017-05-25T03:22:35.409Z,9.44
2017-05-25T03:23:35.449Z,9.48
2017-05-25T03:24:35.482Z,9.48
2017-05-25T03:25:35.486Z,9.53
2017-05-25T03:26:35.543Z,9.56
2017-05-25T03:27:35.578Z,9.56
2017-05-25T03:28:35.595Z,9.57
2017-05-25T03:29:35.635Z,9.7
2017-05-25T03:30:35.661Z,9.64
2017-05-25T03:31:35.682Z,9.63
2017-05-25T03:32:35.733Z,9.72
2017-05-25T03:33:35.766Z,9.72
2017-05-25T03:34:35.780Z,9.81
2017-05-25T03:35:35.815Z,9.81
2017-05-25T03:36:35.856Z,9.81
2017-05-25T03:37:35.894Z,9.81
2017-05-25T03:38:35.922Z,9.75
2017-05-25T03:39:35.962Z,9.88
2017-05-25T03:40:35.986Z,9.81
2017-05-25T03:41:36.016Z,9.88
2017-05-25T03:42:36.033Z,9.85
2017-05-25T03:43:36.079Z,9.85
2017-05-25T03:44:36.090Z,9.85
2017-05-25T03:45:36.125Z,9.88
2017-05-25T03:46:36.166Z,9.85
2017-05-25T03:47:36.200Z,9.89
2017-05-25T03:48:36.240Z,9.93
2017-05-25T03:49:36.254Z,9.96
2017-05-25T03:50:36.255Z,9.9
2017-05-25T03:51:36.336Z,9.95
2017-05-25T03:52:36.365Z,9.96
2017-05-25T03:53:36.404Z,9.95
2017-05-25T03:54:36.421Z,9.96
2017-05-25T03:55:36.451Z,9.96
2017-05-25T03:56:36.479Z,10
2017-05-25T03:57:36.509Z,9.96
2017-05-25T03:58:36.537Z,10.07
2017-05-25T03:59:36.600Z,10.07
2017-05-25T04:00:36.568Z,10.02
2017-05-25T04:01:36.619Z,10.03
2017-05-25T04:02:36.638Z,10.02
2017-05-25T04:03:36.667Z,10.13
2017-05-25T04:04:36.699Z,10.21
2017-05-25T04:05:36.741Z,10.21
2017-05-25T04:06:36.775Z,10.29
2017-05-25T04:07:36.799Z,10.29
2017-05-25T04:08:36.830Z,10.52
2017-05-25T04:09:36.872Z,10.51
2017-05-25T04:10:36.893Z,10.61
2017-05-25T04:11:36.924Z,10.67
2017-05-25T04:12:36.959Z,10.8
2017-05-25T04:13:36.974Z,10.88
2017-05-25T04:14:37.021Z,10.91
2017-05-25T04:15:37.052Z,11.06
2017-05-25T04:16:37.081Z,11.12
2017-05-25T04:17:37.103Z,11.18
2017-05-25T04:18:37.142Z,11.18
2017-05-25T04:19:37.180Z,11.27
2017-05-25T04:20:37.195Z,11.48
2017-05-25T04:21:37.243Z,11.73
2017-05-25T04:22:37.282Z,12.03
2017-05-25T04:23:37.297Z,12.53
2017-05-25T04:24:37.328Z,12.92
2017-05-25T04:25:37.371Z,13.32
2017-05-25T04:26:37.407Z,13.51
2017-05-25T04:27:37.453Z,13.53
2017-05-25T04:28:37.466Z,13.45
2017-05-25T04:29:37.508Z,13.24
2017-05-25T04:30:37.512Z,13.13
2017-05-25T04:31:37.577Z,12.88
2017-05-25T04:32:37.618Z,12.63
2017-05-25T04:33:37.648Z,12.56
2017-05-25T04:34:37.661Z,12.44
2017-05-25T04:35:37.769Z,12.33
2017-05-25T04:36:37.741Z,12.25
2017-05-25T04:37:37.780Z,12.2
2017-05-25T04:38:37.807Z,12.19
2017-05-25T04:39:37.845Z,12.16
2017-05-25T04:40:37.877Z,12.08
2017-05-25T04:41:37.918Z,12.13
2017-05-25T04:42:37.946Z,12.05
2017-05-25T04:43:37.968Z,12.04
2017-05-25T04:44:38.011Z,12.05
2017-05-25T04:45:38.615Z,12.05
2017-05-25T04:46:38.076Z,12.05
2017-05-25T04:47:38.109Z,12.05
2017-05-25T04:48:38.140Z,12.01
2017-05-25T04:49:38.185Z,12.03
2017-05-25T04:50:38.203Z,12.13
2017-05-25T04:51:38.242Z,12.07
2017-05-25T04:52:38.286Z,12.16
2017-05-25T04:53:38.307Z,12.23
2017-05-25T04:54:38.351Z,12.2
2017-05-25T04:55:38.370Z,12.25
2017-05-25T04:56:38.412Z,12.34
2017-05-25T04:57:38.450Z,12.29
2017-05-25T04:58:38.474Z,12.34
2017-05-25T04:59:38.504Z,12.36
2017-05-25T05:00:38.552Z,12.36
2017-05-25T05:01:38.580Z,12.37
2017-05-25T05:02:38.607Z,12.44
2017-05-25T05:03:38.639Z,12.52
2017-05-25T05:04:38.690Z,12.58
2017-05-25T05:05:38.745Z,12.59
2017-05-25T05:06:38.748Z,12.66
2017-05-25T05:07:38.775Z,12.88
2017-05-25T05:08:38.810Z,12.96
2017-05-25T05:09:38.863Z,13.2
2017-05-25T05:10:38.876Z,13.36
2017-05-25T05:11:38.915Z,13.54
2017-05-25T05:12:38.949Z,13.68
2017-05-25T05:13:38.983Z,13.99
2017-05-25T05:14:38.997Z,14.03
2017-05-25T05:15:39.053Z,14.03
2017-05-25T05:16:39.074Z,13.97
2017-05-25T05:17:39.112Z,13.88
2017-05-25T05:18:39.124Z,13.94
2017-05-25T05:19:39.186Z,14.05
2017-05-25T05:20:39.210Z,13.99
2017-05-25T05:21:39.244Z,14.01
2017-05-25T05:22:39.290Z,14.11
2017-05-25T05:23:39.319Z,14.16
2017-05-25T05:24:39.350Z,14.33
2017-05-25T05:25:39.382Z,14.45
2017-05-25T05:26:39.420Z,14.51
2017-05-25T05:27:39.454Z,14.66
2017-05-25T05:28:39.483Z,14.83
2017-05-25T05:29:39.517Z,15.1
2017-05-25T05:30:39.552Z,15.26
2017-05-25T05:31:39.582Z,15.37
2017-05-25T05:32:39.614Z,15.52
2017-05-25T05:33:39.666Z,15.7
2017-05-25T05:34:39.685Z,15.91
2017-05-25T05:35:39.727Z,16.39
2017-05-25T05:36:39.764Z,16.9
2017-05-25T05:37:39.794Z,17.31
2017-05-25T05:38:39.835Z,17.71
2017-05-25T05:39:39.865Z,18.41
2017-05-25T05:40:39.901Z,19.1
2017-05-25T05:41:39.937Z,19.55
2017-05-25T05:42:39.956Z,19.72
2017-05-25T05:43:41.221Z,19.64
2017-05-25T05:44:40.048Z,19.3
2017-05-25T05:45:40.098Z,18.96
2017-05-25T05:46:40.142Z,18.59
2017-05-25T05:47:40.161Z,18.21
2017-05-25T05:48:40.202Z,17.87
2017-05-25T05:49:40.232Z,17.6
2017-05-25T05:50:40.398Z,17.43
2017-05-25T05:51:40.314Z,17.21
2017-05-25T05:52:40.349Z,17.06
2017-05-25T05:53:40.385Z,16.92
2017-05-25T05:54:40.389Z,16.94
2017-05-25T05:55:40.526Z,16.94
2017-05-25T05:56:40.488Z,16.91
2017-05-25T05:57:40.543Z,16.9
2017-05-25T05:58:40.567Z,16.74
2017-05-25T05:59:40.584Z,16.72
2017-05-25T06:00:40.624Z,16.7
2017-05-25T06:01:40.667Z,16.81
2017-05-25T06:02:40.716Z,16.77
2017-05-25T06:03:40.742Z,16.99
2017-05-25T06:04:40.797Z,16.9
2017-05-25T06:05:40.822Z,16.77
2017-05-25T06:06:40.858Z,16.74
2017-05-25T06:07:40.883Z,16.63
2017-05-25T06:08:40.926Z,16.47
2017-05-25T06:09:40.955Z,16.45
2017-05-25T06:10:40.989Z,16.3
2017-05-25T06:11:41.031Z,16.14
2017-05-25T06:12:41.069Z,15.98
2017-05-25T06:13:41.141Z,15.92
2017-05-25T06:14:41.123Z,15.89
2017-05-25T06:15:41.173Z,15.74
2017-05-25T06:16:41.192Z,15.6
2017-05-25T06:17:41.241Z,15.58
2017-05-25T06:18:41.276Z,15.45
2017-05-25T06:19:41.317Z,15.37
2017-05-25T06:20:41.355Z,15.37
2017-05-25T06:21:41.367Z,15.47
2017-05-25T06:22:41.416Z,15.56
2017-05-25T06:23:41.444Z,15.6
2017-05-25T06:24:41.489Z,15.58
2017-05-25T06:25:41.516Z,15.56
2017-05-25T06:26:41.563Z,15.62
2017-05-25T06:27:42.710Z,15.73
2017-05-25T06:28:41.638Z,15.93
2017-05-25T06:29:41.660Z,16.17
2017-05-25T06:30:41.678Z,16.69
2017-05-25T06:31:41.729Z,17.6
2017-05-25T06:32:41.763Z,18.74
2017-05-25T06:33:41.799Z,20.41
2017-05-25T06:34:41.825Z,21.83
2017-05-25T06:35:41.863Z,22.09
2017-05-25T06:36:41.909Z,21.71
2017-05-25T06:37:41.940Z,21.06
2017-05-25T06:38:41.977Z,20.71
2017-05-25T06:39:42.018Z,20.78
2017-05-25T06:40:42.052Z,21.86
2017-05-25T06:41:42.089Z,23.19
2017-05-25T06:42:42.095Z,24.7
2017-05-25T06:43:42.150Z,25.64
2017-05-25T06:44:42.207Z,26.52
2017-05-25T06:45:42.240Z,27.34
2017-05-25T06:46:42.275Z,27.9
2017-05-25T06:47:42.323Z,28.61
2017-05-25T06:48:42.364Z,29.35
2017-05-25T06:49:42.396Z,30.19
2017-05-25T06:50:42.440Z,30.89
2017-05-25T06:51:42.475Z,31.52
2017-05-25T06:52:42.513Z,32
2017-05-25T06:53:42.566Z,32.53
2017-05-25T06:54:42.595Z,33.08
2017-05-25T06:55:42.636Z,33.46
2017-05-25T06:56:42.682Z,33.78
2017-05-25T06:57:42.728Z,34
2017-05-25T06:58:42.768Z,34.14
2017-05-25T06:59:42.793Z,34.41
2017-05-25T07:00:42.830Z,34.56
2017-05-25T07:01:42.879Z,34.81
2017-05-25T07:02:42.983Z,34.94
2017-05-25T07:03:42.973Z,35.05
2017-05-25T07:04:43.015Z,35.18
2017-05-25T07:05:43.065Z,35.08
2017-05-25T07:06:43.089Z,34.78
2017-05-25T07:07:43.141Z,34.77
2017-05-25T07:08:43.195Z,34.9
2017-05-25T07:09:43.232Z,34.97
2017-05-25T07:10:43.273Z,34.86
2017-05-25T07:11:43.321Z,34.58
2017-05-25T07:12:43.363Z,34.33
2017-05-25T07:13:43.397Z,34.24
2017-05-25T07:14:43.440Z,34.18
2017-05-25T07:15:43.485Z,34.45
2017-05-25T07:16:43.531Z,34.84
2017-05-25T07:17:43.575Z,35.16
2017-05-25T07:18:43.669Z,35.27
2017-05-25T07:19:43.674Z,34.93
2017-05-25T07:20:43.705Z,34.67
2017-05-25T07:21:43.757Z,34.84
2017-05-25T07:22:43.791Z,34.91
2017-05-25T07:23:43.845Z,34.9
2017-05-25T07:24:43.877Z,34.54
2017-05-25T07:25:43.923Z,34.24
2017-05-25T07:26:43.970Z,34.11
2017-05-25T07:27:44.031Z,34.17
2017-05-25T07:28:44.059Z,34.21
2017-05-25T07:29:44.104Z,34.33
2017-05-25T07:30:44.154Z,34.78
2017-05-25T07:31:44.188Z,35.38
2017-05-25T07:32:44.232Z,35.9
2017-05-25T07:33:44.271Z,36.14
2017-05-25T07:34:44.329Z,35.92
2017-05-25T07:35:44.375Z,35.58
2017-05-25T07:36:44.402Z,34.9
2017-05-25T07:37:44.461Z,34.87
2017-05-25T07:38:44.502Z,35.23
2017-05-25T07:39:44.551Z,35.77
2017-05-25T07:40:44.576Z,36.18
2017-05-25T07:41:44.630Z,36.7
2017-05-25T07:42:44.684Z,37.22
2017-05-25T07:43:44.727Z,37.62
2017-05-25T07:44:44.779Z,38.09
2017-05-25T07:45:44.831Z,38.18
2017-05-25T07:46:44.866Z,38.22
2017-05-25T07:47:44.896Z,38.12
2017-05-25T07:48:44.953Z,38.47
2017-05-25T07:49:45.001Z,38.61
2017-05-25T07:50:45.046Z,38.2
2017-05-25T07:51:45.087Z,37.02
2017-05-25T07:52:45.143Z,35.61
2017-05-25T07:53:45.179Z,34.58
2017-05-25T07:54:45.228Z,33.97
2017-05-25T07:55:45.273Z,34.22
2017-05-25T07:56:45.320Z,35.15
2017-05-25T07:57:45.351Z,36.08
2017-05-25T07:58:45.403Z,36.9
2017-05-25T07:59:45.456Z,36.05
2017-05-25T08:00:45.486Z,35.31
2017-05-25T08:01:45.531Z,35.27
2017-05-25T08:02:45.594Z,35.6
2017-05-25T08:03:45.623Z,35.28
2017-05-25T08:04:45.677Z,34.37
2017-05-25T08:05:45.725Z,32.86
2017-05-25T08:06:45.774Z,31.63
2017-05-25T08:07:45.817Z,31.31
2017-05-25T08:08:45.866Z,31.22
2017-05-25T08:09:45.898Z,31.65
2017-05-25T08:10:45.957Z,31.26
2017-05-25T08:11:45.985Z,31.12
2017-05-25T08:12:46.032Z,30.88
2017-05-25T08:13:46.086Z,30.56
2017-05-25T08:14:46.118Z,30.13
2017-05-25T08:15:46.158Z,30.85
2017-05-25T08:16:46.194Z,32.05
2017-05-25T08:17:46.267Z,33.47
2017-05-25T08:18:46.294Z,35.06
2017-05-25T08:19:46.356Z,35.62
2017-05-25T08:20:46.385Z,34.74
2017-05-25T08:21:46.422Z,33.41
2017-05-25T08:22:46.467Z,32.09
2017-05-25T08:23:46.523Z,31.53
2017-05-25T08:24:46.562Z,30.67
2017-05-25T08:25:46.612Z,29.95
2017-05-25T08:26:46.694Z,29.39
2017-05-25T08:27:46.715Z,28.76
2017-05-25T08:28:46.750Z,28.88
2017-05-25T08:29:46.781Z,29.26
2017-05-25T08:30:46.823Z,29.63
2017-05-25T08:31:46.866Z,30.86
2017-05-25T08:32:46.908Z,32.39
2017-05-25T08:33:46.958Z,33.96
2017-05-25T08:34:47.000Z,35.28
2017-05-25T08:35:47.046Z,36.32
2017-05-25T08:36:47.086Z,37.42
2017-05-25T08:37:47.132Z,38.3
2017-05-25T08:38:47.174Z,37.99
2017-05-25T08:39:47.205Z,36.68
2017-05-25T08:40:47.258Z,35.09
2017-05-25T08:41:47.313Z,33.43
2017-05-25T08:42:47.413Z,32.53
2017-05-25T08:43:47.393Z,31.82
2017-05-25T08:44:47.442Z,31.25
2017-05-25T08:45:47.487Z,30.34
2017-05-25T08:46:47.520Z,29.43
2017-05-25T08:47:47.570Z,28.41
2017-05-25T08:48:47.616Z,27.43
2017-05-25T08:49:47.662Z,26.59
2017-05-25T08:50:47.701Z,25.76
2017-05-25T08:51:47.740Z,25.04
2017-05-25T08:52:47.802Z,24.58
2017-05-25T08:53:47.827Z,24.12
2017-05-25T08:54:47.855Z,23.87
2017-05-25T08:55:47.906Z,23.47
2017-05-25T08:56:47.958Z,23
2017-05-25T08:57:47.998Z,22.46
2017-05-25T08:58:48.036Z,22.09
2017-05-25T08:59:48.072Z,21.86
2017-05-25T09:00:48.112Z,21.97
2017-05-25T09:01:48.159Z,22.44
2017-05-25T09:02:48.209Z,22.91
2017-05-25T09:03:48.227Z,23.04
2017-05-25T09:04:48.270Z,23.1
2017-05-25T09:05:48.328Z,23.15
2017-05-25T09:06:48.366Z,23.15
2017-05-25T09:07:48.385Z,23.26
2017-05-25T09:08:48.447Z,23.37
2017-05-25T09:09:48.478Z,23.24
2017-05-25T09:10:48.531Z,23.16
2017-05-25T09:11:48.567Z,22.97
2017-05-25T09:12:48.607Z,22.67
2017-05-25T09:13:48.655Z,22.63
2017-05-25T09:14:48.670Z,22.64
2017-05-25T09:15:48.722Z,22.66
2017-05-25T09:16:48.769Z,22.69
2017-05-25T09:17:48.806Z,22.69
2017-05-25T09:18:48.847Z,22.57
2017-05-25T09:19:48.882Z,22.49
2017-05-25T09:20:48.919Z,22.39
2017-05-25T09:21:48.964Z,22.24
2017-05-25T09:22:49.001Z,22.04
2017-05-25T09:23:49.034Z,21.82
2017-05-25T09:24:49.079Z,21.76
2017-05-25T09:25:49.119Z,21.7
2017-05-25T09:26:49.160Z,21.73
2017-05-25T09:27:49.176Z,21.74
2017-05-25T09:28:49.246Z,21.62
2017-05-25T09:29:49.275Z,21.68
2017-05-25T09:30:49.312Z,21.53
2017-05-25T09:31:49.349Z,21.62
2017-05-25T09:32:49.379Z,21.61
2017-05-25T09:33:49.432Z,21.46
2017-05-25T09:34:49.462Z,21.31
2017-05-25T09:35:49.502Z,21.01
2017-05-25T09:36:49.548Z,20.68
2017-05-25T09:37:49.575Z,20.44
2017-05-25T09:38:49.624Z,20.18
2017-05-25T09:39:49.649Z,20.08
2017-05-25T09:40:49.700Z,19.9
2017-05-25T09:41:49.737Z,19.86
2017-05-25T09:42:49.784Z,20.04
2017-05-25T09:43:49.817Z,20.02
2017-05-25T09:44:49.848Z,20.29
2017-05-25T09:45:49.897Z,20.4
2017-05-25T09:46:49.911Z,20.44
2017-05-25T09:47:49.965Z,20.4
2017-05-25T09:48:50.004Z,20.42
2017-05-25T09:49:50.046Z,20.54
2017-05-25T09:50:50.073Z,20.57
2017-05-25T09:51:50.121Z,20.86
2017-05-25T09:52:50.155Z,21.08
2017-05-25T09:53:50.202Z,21.08
2017-05-25T09:54:50.231Z,20.93
2017-05-25T09:55:50.273Z,20.72
2017-05-25T09:56:50.309Z,20.58
2017-05-25T09:57:50.345Z,20.37
2017-05-25T09:58:50.369Z,20.1
2017-05-25T09:59:50.407Z,19.82
2017-05-25T10:00:50.451Z,19.5
2017-05-25T10:01:50.495Z,19.35
2017-05-25T10:02:50.530Z,19.4
2017-05-25T10:03:50.565Z,19.64
2017-05-25T10:04:50.616Z,19.83
2017-05-25T10:05:50.651Z,20.32
2017-05-25T10:06:50.688Z,20.74
2017-05-25T10:07:50.737Z,21.18
2017-05-25T10:08:50.768Z,21.34
2017-05-25T10:09:50.800Z,21.67
2017-05-25T10:10:50.828Z,21.62
2017-05-25T10:11:50.880Z,21.67
2017-05-25T10:12:50.936Z,21.45
2017-05-25T10:13:50.951Z,21.34
2017-05-25T10:14:50.986Z,21.38
2017-05-25T10:15:51.024Z,21.43
2017-05-25T10:16:51.059Z,21.51
2017-05-25T10:17:51.121Z,21.52
2017-05-25T10:18:51.130Z,21.55
2017-05-25T10:19:51.349Z,21.43
2017-05-25T10:20:51.212Z,21.25
2017-05-25T10:21:51.243Z,21.28
2017-05-25T10:22:51.283Z,21.18
2017-05-25T10:23:51.313Z,20.88
2017-05-25T10:24:51.363Z,20.83
2017-05-25T10:25:51.394Z,20.81
2017-05-25T10:26:51.428Z,21.13
2017-05-25T10:27:51.469Z,21.36
2017-05-25T10:28:51.507Z,21.45
2017-05-25T10:29:51.553Z,21.33
2017-05-25T10:30:51.590Z,21.25
2017-05-25T10:31:51.623Z,21.28
2017-05-25T10:32:51.671Z,21.27
2017-05-25T10:33:51.736Z,21.12
2017-05-25T10:34:51.736Z,21.12
2017-05-25T10:35:51.783Z,21.18
2017-05-25T10:36:51.808Z,21.18
2017-05-25T10:37:51.842Z,21.13
2017-05-25T10:38:51.926Z,21.33
2017-05-25T10:39:51.924Z,21.52
2017-05-25T10:40:51.968Z,21.64
2017-05-25T10:41:52.017Z,21.67
2017-05-25T10:42:52.040Z,21.78
2017-05-25T10:43:52.085Z,21.89
2017-05-25T10:44:52.104Z,21.96
2017-05-25T10:45:52.137Z,21.92
2017-05-25T10:46:52.390Z,21.94
2017-05-25T10:47:52.245Z,22.3
2017-05-25T10:48:52.250Z,22.6
2017-05-25T10:49:52.314Z,22.66
2017-05-25T10:50:52.352Z,22.61
2017-05-25T10:51:52.455Z,22.46
2017-05-25T10:52:52.420Z,22.36
2017-05-25T10:53:52.458Z,22.12
2017-05-25T10:54:52.506Z,21.92
2017-05-25T10:55:52.545Z,21.71
2017-05-25T10:56:52.576Z,21.31
2017-05-25T10:57:52.626Z,21.25
2017-05-25T10:58:52.650Z,20.98
2017-05-25T10:59:52.691Z,20.91
2017-05-25T11:00:52.719Z,20.83
2017-05-25T11:01:52.769Z,20.79
2017-05-25T11:02:52.813Z,20.72
2017-05-25T11:03:52.841Z,20.58
2017-05-25T11:04:52.865Z,20.44
2017-05-25T11:05:52.917Z,20.4
2017-05-25T11:06:52.970Z,20.37
2017-05-25T11:07:52.988Z,20.35
2017-05-25T11:08:53.037Z,20.41
2017-05-25T11:09:53.088Z,20.53
2017-05-25T11:10:53.102Z,20.63
2017-05-25T11:11:53.132Z,20.78
2017-05-25T11:12:53.174Z,20.93
2017-05-25T11:13:53.220Z,21.15
2017-05-25T11:14:53.274Z,21.25
2017-05-25T11:15:53.290Z,21.52
2017-05-25T11:16:53.338Z,21.74
2017-05-25T11:17:53.371Z,21.67
2017-05-25T11:18:53.413Z,21.7
2017-05-25T11:19:53.462Z,21.76
2017-05-25T11:20:53.500Z,21.7
2017-05-25T11:21:53.561Z,21.51
2017-05-25T11:22:53.557Z,21.41
2017-05-25T11:23:53.602Z,21.43
2017-05-25T11:24:53.627Z,21.34
2017-05-25T11:25:53.677Z,21.3
2017-05-25T11:26:53.741Z,20.98
2017-05-25T11:27:53.795Z,20.94
2017-05-25T11:28:53.777Z,20.9
2017-05-25T11:29:53.828Z,20.79
2017-05-25T11:30:53.840Z,20.6
2017-05-25T11:31:53.905Z,20.48
2017-05-25T11:32:53.976Z,20.41
2017-05-25T11:33:54.166Z,20.42
2017-05-25T11:34:54.024Z,20.44
2017-05-25T11:35:54.052Z,20.56
2017-05-25T11:36:54.089Z,20.56
2017-05-25T11:37:54.136Z,20.79
2017-05-25T11:38:54.174Z,21.08
2017-05-25T11:39:54.196Z,21.27
2017-05-25T11:40:54.221Z,21.45
2017-05-25T11:41:54.270Z,21.64
2017-05-25T11:42:54.308Z,21.7
2017-05-25T11:43:54.348Z,21.49
2017-05-25T11:44:54.377Z,21.38
2017-05-25T11:45:54.428Z,21.31
2017-05-25T11:46:54.459Z,21.22
2017-05-25T11:47:54.498Z,21.21
2017-05-25T11:48:54.545Z,21.33
2017-05-25T11:49:54.563Z,21.3
2017-05-25T11:50:54.620Z,21.31
2017-05-25T11:51:54.654Z,21.16
2017-05-25T11:52:54.694Z,21.15
2017-05-25T11:53:54.727Z,21.09
2017-05-25T11:54:54.771Z,21.15
2017-05-25T11:55:54.778Z,21.09
2017-05-25T11:56:54.823Z,21.09
2017-05-25T11:57:54.882Z,20.9
2017-05-25T11:58:54.921Z,20.78
2017-05-25T11:59:54.946Z,20.57
2017-05-25T12:00:54.993Z,20.6
2017-05-25T12:01:55.018Z,20.49
2017-05-25T12:02:55.061Z,20.29
2017-05-25T12:03:55.101Z,19.98
2017-05-25T12:04:55.136Z,19.68
2017-05-25T12:05:55.221Z,19.63
2017-05-25T12:06:55.222Z,19.43
2017-05-25T12:07:55.252Z,19.31
2017-05-25T12:08:55.295Z,19.32
2017-05-25T12:09:55.324Z,19.35
2017-05-25T12:10:55.362Z,19.5
2017-05-25T12:11:55.408Z,19.5
2017-05-25T12:12:55.437Z,19.61
2017-05-25T12:13:55.480Z,19.67
2017-05-25T12:14:55.512Z,19.55
2017-05-25T12:15:55.562Z,19.49
2017-05-25T12:16:55.580Z,19.5
2017-05-25T12:17:55.643Z,19.55
2017-05-25T12:18:55.650Z,19.6
2017-05-25T12:19:55.708Z,19.79
2017-05-25T12:20:55.760Z,19.86
2017-05-25T12:21:55.777Z,20.07
2017-05-25T12:22:55.815Z,20.4
2017-05-25T12:23:55.844Z,20.66
2017-05-25T12:24:55.907Z,20.94
2017-05-25T12:25:55.924Z,21.31
2017-05-25T12:26:55.979Z,21.49
2017-05-25T12:27:56.023Z,21.64
2017-05-25T12:28:56.029Z,21.93
2017-05-25T12:29:56.078Z,21.94
2017-05-25T12:30:56.136Z,22
2017-05-25T12:31:56.145Z,22.12
2017-05-25T12:32:56.198Z,22.14
2017-05-25T12:33:56.219Z,22.26
2017-05-25T12:34:56.265Z,22.16
2017-05-25T12:35:56.299Z,22.29
2017-05-25T12:36:56.363Z,22.33
2017-05-25T12:37:56.379Z,22.45
2017-05-25T12:38:56.415Z,22.45
2017-05-25T12:39:56.438Z,22.34
2017-05-25T12:40:56.494Z,22.36
2017-05-25T12:41:56.527Z,22.48
2017-05-25T12:42:56.592Z,22.59
2017-05-25T12:43:56.592Z,22.59
2017-05-25T12:44:56.638Z,22.55
2017-05-25T12:45:56.690Z,22.55
2017-05-25T12:46:56.909Z,22.48
2017-05-25T12:47:56.945Z,22.42
2017-05-25T12:48:56.985Z,22.04
2017-05-25T12:49:56.826Z,21.64
2017-05-25T12:50:56.866Z,21.33
2017-05-25T12:51:56.899Z,20.9
2017-05-25T12:52:56.936Z,20.6
2017-05-25T12:53:56.978Z,20.4
2017-05-25T12:54:57.249Z,20.11
2017-05-25T12:55:57.056Z,19.97
2017-05-25T12:56:57.110Z,19.79
2017-05-25T12:57:57.137Z,19.79
2017-05-25T12:58:57.183Z,19.65
2017-05-25T12:59:57.211Z,19.63
2017-05-25T13:00:57.238Z,19.53
2017-05-25T13:01:57.282Z,19.56
2017-05-25T13:02:57.381Z,19.53